Salamis Filoxenia — 5BUY2 — position and weather

sailwx.info

Track history (hours):
 
Tides and Currents Weather Stations Pressure Air Temp Water Temp Dewpoint Dewpoint Depression Visibility Wind Speed Wind Dir Waves Ship Positions

Salamis Filoxenia

Last reported at 2016-Aug-28 14:21 UTC. Time now 2016-Aug-29 19:59 UTC.
Position N 37°47' E 020°54'.

Length 157 m; draft 6.2 m.

Type: Passenger vessel. MMSI: 209167000.

Date/timePositionNaut miles runAvg speedWind from/ knotsBaromVisibWave heightAir tempDewpointWater temp
2016-Aug-28 14:21N 37°47' E 020°54'59712.8
2016-Aug-26 15:33N 34°38' E 032°36'1414.2
2016-Aug-26 14:33N 34°33' E 032°52'1110.7
2016-Aug-26 13:33N 34°38' E 033°03'2 2.0
2016-Aug-26 12:34N 34°39' E 033°01'0 0.0
2016-Aug-26 11:34N 34°39' E 033°01'0 0.0
2016-Aug-26 10:34N 34°39' E 033°01'0 0.0
2016-Aug-26 09:34N 34°39' E 033°01'0 0.0
2016-Aug-26 08:34N 34°39' E 033°01'0 0.0
2016-Aug-26 07:34N 34°39' E 033°01'7 7.0
2016-Aug-26 06:33N 34°32' E 032°60'  
2016-Aug-22 13:18N 34°36' E 032°44'1114.1
2016-Aug-22 12:31N 34°32' E 032°57'8 8.1
2016-Aug-22 11:33N 34°39' E 033°01'0 0.3
2016-Aug-22 10:34N 34°39' E 033°01'0 0.0
2016-Aug-22 09:34N 34°39' E 033°01'0 0.0
2016-Aug-22 08:33N 34°39' E 033°01'0 0.0
2016-Aug-22 07:34N 34°39' E 033°01'0 0.0
2016-Aug-22 06:34N 34°39' E 033°01'6 6.1
2016-Aug-22 05:34N 34°34' E 033°04'1714.1
2016-Aug-22 04:20N 34°36' E 032°43'9315.0
2016-Aug-21 22:10N 35°17' E 031°02'6215.2
2016-Aug-21 18:08N 35°46' E 029°55'  
2016-Aug-19 03:33N 37°43' E 025°11'1414.1
2016-Aug-19 02:33N 37°30' E 025°17'3 2.9
2016-Aug-19 01:33N 37°28' E 025°19'0 0.0
2016-Aug-19 00:33N 37°28' E 025°19'0 0.0
2016-Aug-18 23:33N 37°28' E 025°19'0 0.0
2016-Aug-18 22:33N 37°28' E 025°19'0 0.0
2016-Aug-18 21:33N 37°28' E 025°19'0 0.0
2016-Aug-18 20:33N 37°28' E 025°19'0 0.0
2016-Aug-18 19:33N 37°28' E 025°19'0 0.0
2016-Aug-18 18:33N 37°28' E 025°19'0 0.0
2016-Aug-18 17:33N 37°28' E 025°19'1 0.5
2016-Aug-18 16:33N 37°27' E 025°19'1212.0
2016-Aug-18 15:33N 37°18' E 025°28'1615.6
2016-Aug-18 14:33N 37°11' E 025°46'  
Track history (hours):
 
Tides and Currents Weather Stations Pressure Air Temp Water Temp Dewpoint Dewpoint Depression Visibility Wind Speed Wind Dir Waves Ship Positions

Salamis Filoxenia

Last reported at 2016-Aug-28 14:21 UTC. Time now 2016-Aug-29 19:59 UTC.
Position N 37°47' E 020°54'.

Length 157 m; draft 6.2 m.

Type: Passenger vessel. MMSI: 209167000.

Date/timePositionNaut miles runAvg speedWind from/ knotsBaromVisibWave heightAir tempDewpointWater temp
2016-Aug-28 14:21N 37°47' E 020°54'59712.8
2016-Aug-26 15:33N 34°38' E 032°36'1414.2
2016-Aug-26 14:33N 34°33' E 032°52'1110.7
2016-Aug-26 13:33N 34°38' E 033°03'2 2.0
2016-Aug-26 12:34N 34°39' E 033°01'0 0.0
2016-Aug-26 11:34N 34°39' E 033°01'0 0.0
2016-Aug-26 10:34N 34°39' E 033°01'0 0.0
2016-Aug-26 09:34N 34°39' E 033°01'0 0.0
2016-Aug-26 08:34N 34°39' E 033°01'0 0.0
2016-Aug-26 07:34N 34°39' E 033°01'7 7.0
2016-Aug-26 06:33N 34°32' E 032°60'  
2016-Aug-22 13:18N 34°36' E 032°44'1114.1
2016-Aug-22 12:31N 34°32' E 032°57'8 8.1
2016-Aug-22 11:33N 34°39' E 033°01'0 0.3
2016-Aug-22 10:34N 34°39' E 033°01'0 0.0
2016-Aug-22 09:34N 34°39' E 033°01'0 0.0
2016-Aug-22 08:33N 34°39' E 033°01'0 0.0
2016-Aug-22 07:34N 34°39' E 033°01'0 0.0
2016-Aug-22 06:34N 34°39' E 033°01'6 6.1
2016-Aug-22 05:34N 34°34' E 033°04'1714.1
2016-Aug-22 04:20N 34°36' E 032°43'9315.0
2016-Aug-21 22:10N 35°17' E 031°02'6215.2
2016-Aug-21 18:08N 35°46' E 029°55'  
2016-Aug-19 03:33N 37°43' E 025°11'1414.1
2016-Aug-19 02:33N 37°30' E 025°17'3 2.9
2016-Aug-19 01:33N 37°28' E 025°19'0 0.0
2016-Aug-19 00:33N 37°28' E 025°19'0 0.0
2016-Aug-18 23:33N 37°28' E 025°19'0 0.0
2016-Aug-18 22:33N 37°28' E 025°19'0 0.0
2016-Aug-18 21:33N 37°28' E 025°19'0 0.0
2016-Aug-18 20:33N 37°28' E 025°19'0 0.0
2016-Aug-18 19:33N 37°28' E 025°19'0 0.0
2016-Aug-18 18:33N 37°28' E 025°19'0 0.0
2016-Aug-18 17:33N 37°28' E 025°19'1 0.5
2016-Aug-18 16:33N 37°27' E 025°19'1212.0
2016-Aug-18 15:33N 37°18' E 025°28'1615.6
2016-Aug-18 14:33N 37°11' E 025°46'  

Dump ship's entire track history